Time;durP1;ratioP1;P1;durP2;ratioP2;P2;SDS_P1;SDS_P2;PMS_P1;PMS_P2;Temp;Humidity;BMP_temperature;BMP_pressure;BME280_temperature;BME280_humidity;BME280_pressure;Samples;Min_cycle;Max_cycle;Signal;HPM_P1;HPM_P2
2023/04/17 00:00:38;;;;;;;10.75;4.55;;;;;;;;;;5012078;28;20053;-48
2023/04/17 00:03:05;;;;;;;7.07;4.68;;;;;;;;;;5015236;28;20299;-47
2023/04/17 00:05:39;;;;;;;9.57;4.65;;;;;;;;;;5013343;28;20109;-47
2023/04/17 00:08:06;;;;;;;8.75;4.60;;;;;;;;;;5013024;28;20572;-48
2023/04/17 00:10:40;;;;;;;13.18;5.38;;;;;;;;;;5014228;28;20060;-52
2023/04/17 00:13:07;;;;;;;11.48;5.25;;;;;;;;;;5016148;28;20470;-58
2023/04/17 00:15:34;;;;;;;14.75;5.18;;;;;;;;;;5013441;28;20096;-59
2023/04/17 00:18:08;;;;;;;11.88;5.90;;;;;;;;;;5016773;28;20041;-59
2023/04/17 00:20:35;;;;;;;13.00;5.40;;;;;;;;;;5015991;28;20501;-59
2023/04/17 00:23:09;;;;;;;11.77;5.25;;;;;;;;;;5017633;28;20045;-58
2023/04/17 00:25:36;;;;;;;11.18;5.10;;;;;;;;;;5016003;28;20386;-59
2023/04/17 00:28:03;;;;;;;10.10;5.05;;;;;;;;;;5015606;28;20072;-59
2023/04/17 00:30:37;;;;;;;8.93;5.28;;;;;;;;;;5018964;28;20064;-54
2023/04/17 00:33:04;;;;;;;13.00;4.43;;;;;;;;;;5016903;28;20049;-53
2023/04/17 00:35:38;;;;;;;12.07;4.78;;;;;;;;;;5013468;28;20046;-53
2023/04/17 00:38:11;;;;;;;10.30;5.07;;;;;;;;;;5015572;28;20069;-55
2023/04/17 00:40:52;;;;;;;9.63;5.15;;;;;;;;;;5009153;28;20049;-55
2023/04/17 00:43:20;;;;;;;9.73;5.40;;;;;;;;;;5016568;28;20042;-61
2023/04/17 00:45:54;;;;;;;7.95;4.90;;;;;;;;;;5017261;28;20408;-61
2023/04/17 00:48:23;;;;;;;9.52;4.75;;;;;;;;;;5015089;28;20120;-61
2023/04/17 00:50:50;;;;;;;16.63;5.68;;;;;;;;;;5017615;28;20076;-61
2023/04/17 00:53:24;;;;;;;7.78;5.10;;;;;;;;;;5016438;28;20051;-63
2023/04/17 00:55:51;;;;;;;11.95;5.95;;;;;;;;;;5013845;28;20125;-63
2023/04/17 00:58:18;;;;;;;10.63;5.32;;;;;;;;;;5017301;28;20068;-61
2023/04/17 01:00:53;;;;;;;9.77;5.97;;;;;;;;;;5013255;28;20057;-61
2023/04/17 01:03:21;;;;;;;8.13;5.13;;;;;;;;;;5018151;28;20041;-61
2023/04/17 01:05:55;;;;;;;12.23;5.55;;;;;;;;;;5014221;28;20132;-61
2023/04/17 01:08:22;;;;;;;11.15;5.80;;;;;;;;;;5013847;28;20177;-50
2023/04/17 01:10:49;;;;;;;9.90;5.25;;;;;;;;;;5018933;28;20077;-62
2023/04/17 01:13:24;;;;;;;12.55;6.00;;;;;;;;;;5013181;28;20049;-53
2023/04/17 01:15:52;;;;;;;11.00;5.40;;;;;;;;;;5015200;28;20048;-51
2023/04/17 01:18:26;;;;;;;11.25;5.65;;;;;;;;;;5016209;28;20132;-57
2023/04/17 01:20:53;;;;;;;15.85;5.88;;;;;;;;;;5020099;28;20136;-56
2023/04/17 01:23:28;;;;;;;12.15;6.30;;;;;;;;;;5000959;28;20516;-54
2023/04/17 01:25:55;;;;;;;9.98;5.90;;;;;;;;;;5017980;28;20129;-58
2023/04/17 01:28:22;;;;;;;12.98;5.68;;;;;;;;;;5017595;28;20062;-61
2023/04/17 01:30:56;;;;;;;11.00;6.03;;;;;;;;;;5016683;28;20053;-61
2023/04/17 01:33:23;;;;;;;12.75;5.78;;;;;;;;;;5016977;28;20095;-61
2023/04/17 01:35:57;;;;;;;13.05;5.93;;;;;;;;;;5018004;28;20149;-61
2023/04/17 01:38:30;;;;;;;11.80;6.15;;;;;;;;;;5018180;28;20615;-49
2023/04/17 01:41:11;;;;;;;11.55;5.57;;;;;;;;;;5015297;28;20092;-54
2023/04/17 01:43:40;;;;;;;12.77;5.57;;;;;;;;;;5011466;28;20364;-51
2023/04/17 01:46:14;;;;;;;11.60;5.47;;;;;;;;;;5014012;28;20053;-53
2023/04/17 01:48:48;;;;;;;10.63;5.45;;;;;;;;;;5015428;28;20054;-49
2023/04/17 01:51:22;;;;;;;13.07;5.15;;;;;;;;;;5015114;28;20049;-55
2023/04/17 01:53:49;;;;;;;13.88;5.78;;;;;;;;;;5015876;28;20064;-55
2023/04/17 01:56:16;;;;;;;9.73;5.78;;;;;;;;;;5014365;28;20081;-63
2023/04/17 01:58:50;;;;;;;13.95;5.97;;;;;;;;;;5013401;28;20153;-63
2023/04/17 02:01:17;;;;;;;;;;;;;;;;;;5016323;28;20069;-63
2023/04/17 02:03:51;;;;;;;15.02;6.40;;;;;;;;;;5012749;28;19956;-63
2023/04/17 02:06:18;;;;;;;13.70;6.05;;;;;;;;;;5017702;28;20103;-54
2023/04/17 02:08:45;;;;;;;11.32;5.78;;;;;;;;;;5015987;28;20498;-59
2023/04/17 02:11:19;;;;;;;13.57;6.40;;;;;;;;;;5010083;28;20049;-59
2023/04/17 02:13:46;;;;;;;9.93;6.40;;;;;;;;;;5013021;28;20049;-54
2023/04/17 02:16:21;;;;;;;12.23;6.10;;;;;;;;;;5011164;28;20494;-59
2023/04/17 02:18:48;;;;;;;;;;;;;;;;;;5008578;28;20065;-57
2023/04/17 02:21:15;;;;;;;10.60;5.43;;;;;;;;;;5014060;28;19928;-54
2023/04/17 02:23:49;;;;;;;9.02;5.30;;;;;;;;;;5016566;28;20053;-59
2023/04/17 02:26:16;;;;;;;8.15;4.85;;;;;;;;;;5011309;28;20049;-58
2023/04/17 02:28:50;;;;;;;11.98;6.30;;;;;;;;;;5012246;28;20140;-60
2023/04/17 02:31:17;;;;;;;16.05;6.47;;;;;;;;;;5016487;28;20580;-60
2023/04/17 02:33:44;;;;;;;19.65;7.10;;;;;;;;;;5012766;28;20133;-60
2023/04/17 02:36:18;;;;;;;16.10;6.65;;;;;;;;;;5016208;28;20493;-63
2023/04/17 02:38:45;;;;;;;14.60;6.50;;;;;;;;;;5017816;28;20055;-63
2023/04/17 02:41:25;;;;;;;10.95;5.93;;;;;;;;;;5009547;28;20493;-62
2023/04/17 02:43:53;;;;;;;9.52;5.47;;;;;;;;;;5012778;28;20496;-62
2023/04/17 02:46:27;;;;;;;12.57;6.45;;;;;;;;;;5016211;28;20042;-62
2023/04/17 02:48:54;;;;;;;14.27;5.68;;;;;;;;;;5012289;28;20046;-62
2023/04/17 02:51:21;;;;;;;11.60;5.88;;;;;;;;;;5013647;28;20046;-62
2023/04/17 02:53:55;;;;;;;11.45;6.28;;;;;;;;;;5015490;28;20064;-62
2023/04/17 02:56:22;;;;;;;13.70;6.18;;;;;;;;;;5009835;28;20053;-60
2023/04/17 02:58:56;;;;;;;12.57;6.32;;;;;;;;;;5014166;28;20140;-62
2023/04/17 03:01:23;;;;;;;12.10;6.90;;;;;;;;;;5015150;28;20045;-62
2023/04/17 03:03:51;;;;;;;13.13;6.15;;;;;;;;;;5016629;28;20527;-47
2023/04/17 03:06:25;;;;;;;13.90;6.28;;;;;;;;;;5012181;28;20049;-63
2023/04/17 03:08:53;;;;;;;16.02;6.80;;;;;;;;;;5015924;28;20138;-63
2023/04/17 03:11:27;;;;;;;13.57;6.40;;;;;;;;;;5014090;28;20037;-64
2023/04/17 03:13:54;;;;;;;16.27;6.40;;;;;;;;;;5016684;28;20145;-63
2023/04/17 03:16:21;;;;;;;11.20;6.40;;;;;;;;;;5016693;28;20042;-64
2023/04/17 03:18:55;;;;;;;11.82;5.75;;;;;;;;;;5018363;28;20053;-63
2023/04/17 03:21:22;;;;;;;9.35;5.90;;;;;;;;;;5019831;28;20080;-59
2023/04/17 03:23:56;;;;;;;14.07;7.05;;;;;;;;;;5020709;28;20167;-59
2023/04/17 03:26:23;;;;;;;13.43;6.47;;;;;;;;;;5018243;28;20132;-58
2023/04/17 03:28:50;;;;;;;16.63;7.32;;;;;;;;;;5018564;28;20133;-59
2023/04/17 03:31:24;;;;;;;14.25;6.47;;;;;;;;;;5020519;28;20055;-56
2023/04/17 03:33:51;;;;;;;15.80;7.05;;;;;;;;;;5017602;28;20054;-52
2023/04/17 03:36:26;;;;;;;18.83;7.22;;;;;;;;;;5020217;28;20045;-50
2023/04/17 03:38:59;;;;;;;17.88;8.02;;;;;;;;;;5019552;28;20479;-55
2023/04/17 03:41:33;;;;;;;17.75;8.07;;;;;;;;;;5017682;28;20516;-49
2023/04/17 03:44:00;;;;;;;12.05;6.53;;;;;;;;;;5016093;28;20055;-51
2023/04/17 03:46:27;;;;;;;15.40;6.90;;;;;;;;;;5024647;28;20137;-51
2023/04/17 03:49:01;;;;;;;12.82;7.35;;;;;;;;;;5018147;28;20049;-60
2023/04/17 03:51:28;;;;;;;16.20;7.38;;;;;;;;;;5017706;28;20079;-59
2023/04/17 03:54:02;;;;;;;12.75;7.00;;;;;;;;;;5016046;28;20081;-60
2023/04/17 03:56:29;;;;;;;14.50;6.97;;;;;;;;;;5019497;28;21223;-60
2023/04/17 03:58:56;;;;;;;13.80;7.60;;;;;;;;;;5018588;28;20084;-57
2023/04/17 04:01:31;;;;;;;17.77;7.18;;;;;;;;;;5013270;28;20136;-62
2023/04/17 04:03:59;;;;;;;16.67;6.45;;;;;;;;;;5019489;28;20132;-52
2023/04/17 04:06:33;;;;;;;16.25;7.15;;;;;;;;;;5022973;28;20056;-50
2023/04/17 04:09:00;;;;;;;12.65;6.88;;;;;;;;;;5021397;28;20060;-52
2023/04/17 04:11:27;;;;;;;19.00;7.57;;;;;;;;;;5014473;28;20512;-50
2023/04/17 04:14:02;;;;;;;15.02;7.28;;;;;;;;;;5018497;28;20049;-50
2023/04/17 04:16:29;;;;;;;15.15;7.47;;;;;;;;;;5011634;28;20144;-56
2023/04/17 04:19:03;;;;;;;14.07;6.88;;;;;;;;;;5003894;28;20058;-63
2023/04/17 04:21:30;;;;;;;12.88;6.10;;;;;;;;;;5014913;28;20057;-64
2023/04/17 04:23:57;;;;;;;18.90;7.00;;;;;;;;;;5015453;28;20129;-64
2023/04/17 04:26:32;;;;;;;18.83;7.28;;;;;;;;;;5018506;28;20059;-64
2023/04/17 04:28:59;;;;;;;13.13;6.80;;;;;;;;;;5008654;28;20145;-51
2023/04/17 04:31:34;;;;;;;16.38;7.25;;;;;;;;;;5011172;28;20582;-62
2023/04/17 04:34:01;;;;;;;14.35;6.13;;;;;;;;;;5015764;28;20501;-62
2023/04/17 04:36:48;;;;;;;11.10;6.25;;;;;;;;;;5015007;28;20073;-62
2023/04/17 04:39:25;;;;;;;16.15;6.85;;;;;;;;;;5008518;28;20068;-62
2023/04/17 04:42:08;;;;;;;11.10;5.18;;;;;;;;;;4994062;28;20540;-62
2023/04/17 04:44:36;;;;;;;13.68;6.20;;;;;;;;;;5011283;28;20045;-62
2023/04/17 04:47:10;;;;;;;9.70;6.00;;;;;;;;;;5007602;28;20505;-46
2023/04/17 04:49:37;;;;;;;10.38;5.85;;;;;;;;;;5008065;28;20060;-57
2023/04/17 04:52:04;;;;;;;9.98;5.40;;;;;;;;;;5011773;28;20685;-59
2023/04/17 04:54:38;;;;;;;9.25;5.70;;;;;;;;;;5012226;28;20053;-59
2023/04/17 04:57:05;;;;;;;11.15;5.72;;;;;;;;;;5013765;28;20047;-59
2023/04/17 04:59:39;;;;;;;9.52;5.70;;;;;;;;;;5010728;28;20536;-59
2023/04/17 05:02:06;;;;;;;10.60;5.63;;;;;;;;;;5006043;28;20129;-58
2023/04/17 05:04:34;;;;;;;8.55;5.20;;;;;;;;;;5013401;28;20414;-60
2023/04/17 05:07:10;;;;;;;9.30;4.70;;;;;;;;;;5013800;28;20065;-60
2023/04/17 05:09:37;;;;;;;14.07;5.28;;;;;;;;;;4999090;28;20400;-60
2023/04/17 05:12:04;;;;;;;10.80;5.72;;;;;;;;;;5017544;28;20585;-60
2023/04/17 05:14:38;;;;;;;10.60;5.45;;;;;;;;;;5010283;28;20057;-56
2023/04/17 05:17:05;;;;;;;11.02;5.90;;;;;;;;;;5013390;28;20048;-58
2023/04/17 05:19:39;;;;;;;10.35;5.13;;;;;;;;;;5014944;28;20137;-57
2023/04/17 05:22:06;;;;;;;10.95;5.32;;;;;;;;;;5011354;28;20049;-57
2023/04/17 05:24:33;;;;;;;10.85;5.53;;;;;;;;;;5012712;28;20056;-56
2023/04/17 05:27:07;;;;;;;11.70;4.95;;;;;;;;;;5012714;28;20046;-57
2023/04/17 05:29:34;;;;;;;10.05;5.90;;;;;;;;;;5013169;28;20049;-57
2023/04/17 05:32:08;;;;;;;10.85;5.40;;;;;;;;;;5010525;28;20139;-57
2023/04/17 05:34:35;;;;;;;12.00;5.93;;;;;;;;;;5014694;28;20434;-60
2023/04/17 05:37:02;;;;;;;16.23;6.93;;;;;;;;;;5011727;28;20053;-60
2023/04/17 05:39:42;;;;;;;16.52;7.10;;;;;;;;;;5011526;28;20053;-60
2023/04/17 05:42:10;;;;;;;10.45;6.20;;;;;;;;;;5013625;28;20083;-60
2023/04/17 05:44:44;;;;;;;10.10;5.05;;;;;;;;;;5002280;28;20081;-59
2023/04/17 05:47:12;;;;;;;13.63;5.35;;;;;;;;;;5012316;28;21564;-54
2023/04/17 05:49:39;;;;;;;13.63;6.22;;;;;;;;;;5011087;28;20084;-55
2023/04/17 05:52:13;;;;;;;14.82;5.75;;;;;;;;;;5011030;28;20057;-56
2023/04/17 05:54:40;;;;;;;12.20;6.15;;;;;;;;;;4995867;28;20162;-57
2023/04/17 05:57:14;;;;;;;11.20;6.18;;;;;;;;;;5013606;28;20045;-56
2023/04/17 05:59:42;;;;;;;12.95;6.47;;;;;;;;;;5001073;28;20501;-57
2023/04/17 06:02:09;;;;;;;15.25;6.07;;;;;;;;;;5012624;28;20074;-55
2023/04/17 06:04:43;;;;;;;14.65;6.35;;;;;;;;;;5014408;28;20057;-56
2023/04/17 06:07:11;;;;;;;13.60;6.90;;;;;;;;;;5008079;28;20050;-53
2023/04/17 06:09:51;;;;;;;11.77;6.30;;;;;;;;;;5013797;28;20073;-57
2023/04/17 06:12:19;;;;;;;11.68;6.32;;;;;;;;;;5014025;28;20050;-47
2023/04/17 06:15:00;;;;;;;12.98;6.88;;;;;;;;;;5012067;28;20053;-44
2023/04/17 06:17:27;;;;;;;13.90;7.63;;;;;;;;;;5013022;28;20133;-47
2023/04/17 06:20:01;;;;;;;15.90;7.40;;;;;;;;;;5012406;28;20049;-47
2023/04/17 06:22:28;;;;;;;18.88;7.22;;;;;;;;;;5011989;28;20057;-45
2023/04/17 06:24:55;;;;;;;11.05;7.50;;;;;;;;;;5012746;28;20140;-47
2023/04/17 06:27:29;;;;;;;13.45;7.80;;;;;;;;;;5012629;28;20128;-46
2023/04/17 06:29:56;;;;;;;13.65;7.88;;;;;;;;;;5011932;28;20049;-60
2023/04/17 06:32:30;;;;;;;15.07;7.15;;;;;;;;;;5010580;28;20414;-59
2023/04/17 06:34:57;;;;;;;11.95;7.05;;;;;;;;;;5013059;28;20057;-60
2023/04/17 06:37:25;;;;;;;10.93;6.50;;;;;;;;;;5009995;28;20483;-59
2023/04/17 06:40:12;;;;;;;8.77;5.20;;;;;;;;;;5011948;28;20058;-59
2023/04/17 06:42:47;;;;;;;7.83;5.07;;;;;;;;;;5013713;28;20037;-55
2023/04/17 06:45:21;;;;;;;14.40;6.03;;;;;;;;;;5009097;28;20049;-52
2023/04/17 06:47:48;;;;;;;12.02;5.30;;;;;;;;;;5013783;28;20140;-54
2023/04/17 06:50:15;;;;;;;8.95;5.18;;;;;;;;;;5016294;28;20084;-55
2023/04/17 06:52:49;;;;;;;9.30;5.05;;;;;;;;;;5014286;28;20552;-51
2023/04/17 06:55:16;;;;;;;8.32;4.80;;;;;;;;;;5016989;28;20267;-55
2023/04/17 06:57:50;;;;;;;7.63;4.20;;;;;;;;;;5014188;28;20049;-50
2023/04/17 07:00:17;;;;;;;7.32;4.68;;;;;;;;;;5014658;28;20061;-51
2023/04/17 07:02:45;;;;;;;7.18;4.60;;;;;;;;;;5013970;28;20736;-50
2023/04/17 07:05:19;;;;;;;7.05;4.57;;;;;;;;;;5016397;28;20049;-50
2023/04/17 07:07:46;;;;;;;9.85;4.57;;;;;;;;;;5017373;28;20137;-52
2023/04/17 07:10:20;;;;;;;7.07;4.15;;;;;;;;;;5018071;28;20058;-60
2023/04/17 07:12:47;;;;;;;7.47;4.47;;;;;;;;;;5018226;28;20052;-57
2023/04/17 07:15:15;;;;;;;10.40;5.05;;;;;;;;;;5013131;28;20049;-55
2023/04/17 07:17:49;;;;;;;7.22;4.50;;;;;;;;;;5013461;28;20096;-57
2023/04/17 07:20:16;;;;;;;7.90;4.35;;;;;;;;;;5013898;28;20488;-56
2023/04/17 07:22:50;;;;;;;14.27;4.85;;;;;;;;;;5016182;28;20045;-54
2023/04/17 07:25:18;;;;;;;8.80;4.15;;;;;;;;;;5016378;28;20054;-57
2023/04/17 07:27:45;;;;;;;15.20;4.13;;;;;;;;;;5016206;28;20046;-53
2023/04/17 07:30:19;;;;;;;9.07;4.03;;;;;;;;;;5012020;28;20060;-54
2023/04/17 07:32:46;;;;;;;6.95;3.85;;;;;;;;;;5012745;28;20050;-55
2023/04/17 07:35:20;;;;;;;13.85;3.55;;;;;;;;;;5018091;28;20049;-55
2023/04/17 07:37:47;;;;;;;8.95;3.83;;;;;;;;;;5014978;28;20410;-58
2023/04/17 07:40:15;;;;;;;4.88;3.17;;;;;;;;;;5013474;28;20313;-60
2023/04/17 07:42:49;;;;;;;8.35;3.70;;;;;;;;;;5015864;28;20092;-60
2023/04/17 07:45:16;;;;;;;7.75;4.10;;;;;;;;;;5010995;28;20056;-60
2023/04/17 07:47:51;;;;;;;6.53;3.03;;;;;;;;;;5012694;28;20046;-59
2023/04/17 07:50:18;;;;;;;4.00;2.78;;;;;;;;;;5014612;28;20068;-59
2023/04/17 07:52:45;;;;;;;7.40;3.13;;;;;;;;;;5015759;28;20136;-60
2023/04/17 07:55:20;;;;;;;7.43;3.90;;;;;;;;;;5013647;28;20488;-46
2023/04/17 07:57:50;;;;;;;6.63;3.20;;;;;;;;;;5017568;28;20037;-47
2023/04/17 08:00:24;;;;;;;7.72;3.42;;;;;;;;;;5012210;28;20455;-46
2023/04/17 08:02:51;;;;;;;9.52;3.40;;;;;;;;;;5015898;28;21143;-46
2023/04/17 08:05:18;;;;;;;6.57;2.95;;;;;;;;;;5014823;28;20571;-58
2023/04/17 08:07:52;;;;;;;5.25;2.70;;;;;;;;;;5012975;28;20450;-57
2023/04/17 08:10:19;;;;;;;6.43;2.42;;;;;;;;;;5014427;28;20073;-58
2023/04/17 08:12:53;;;;;;;7.55;3.00;;;;;;;;;;5013341;28;20116;-57
2023/04/17 08:15:20;;;;;;;6.80;2.88;;;;;;;;;;5014752;28;20045;-58
2023/04/17 08:17:48;;;;;;;;;;;;;;;;;;5014475;28;20080;-59
2023/04/17 08:20:23;;;;;;;5.88;3.08;;;;;;;;;;5014456;28;19922;-59
2023/04/17 08:22:50;;;;;;;5.57;3.10;;;;;;;;;;5014961;28;20508;-59
2023/04/17 08:25:24;;;;;;;6.20;3.00;;;;;;;;;;5014587;28;20200;-49
2023/04/17 08:27:51;;;;;;;9.93;3.10;;;;;;;;;;5014688;28;20077;-47
2023/04/17 08:30:19;;;;;;;4.20;2.72;;;;;;;;;;5013668;28;20049;-49
2023/04/17 08:32:54;;;;;;;5.97;3.30;;;;;;;;;;5013992;28;20038;-50
2023/04/17 08:35:21;;;;;;;4.28;2.83;;;;;;;;;;5013921;28;20162;-48
2023/04/17 08:37:57;;;;;;;6.97;2.72;;;;;;;;;;5015453;28;20049;-60
2023/04/17 08:40:30;;;;;;;4.88;2.95;;;;;;;;;;5013160;28;20620;-60
2023/04/17 08:43:05;;;;;;;6.03;2.88;;;;;;;;;;5015098;28;20053;-60
2023/04/17 08:45:32;;;;;;;;;;;;;;;;;;5013975;28;20076;-60
2023/04/17 08:47:59;;;;;;;7.05;3.40;;;;;;;;;;5001881;28;19937;-60
2023/04/17 08:50:33;;;;;;;8.77;2.95;;;;;;;;;;5016834;28;20060;-60
2023/04/17 08:53:00;;;;;;;8.00;3.00;;;;;;;;;;5013344;28;20128;-56
2023/04/17 08:55:35;;;;;;;6.63;3.00;;;;;;;;;;5013998;28;20064;-57
2023/04/17 08:58:03;;;;;;;6.70;3.22;;;;;;;;;;5012255;28;20511;-58
2023/04/17 09:00:38;;;;;;;7.68;2.72;;;;;;;;;;5016222;28;20049;-59
2023/04/17 09:03:06;;;;;;;7.60;2.67;;;;;;;;;;5013097;28;20173;-47
2023/04/17 09:05:38;;;;;;;8.88;2.92;;;;;;;;;;5015089;28;20342;-53
2023/04/17 09:08:13;;;;;;;;;;;;;;;;;;5016444;28;20515;-52
2023/04/17 09:10:47;;;;;;;8.52;2.85;;;;;;;;;;5012938;28;19921;-55
2023/04/17 09:13:24;;;;;;;5.88;2.60;;;;;;;;;;5016583;28;20497;-55
2023/04/17 09:16:06;;;;;;;9.10;3.13;;;;;;;;;;5014225;28;20160;-52
2023/04/17 09:18:34;;;;;;;4.13;2.60;;;;;;;;;;5015070;28;20110;-55
2023/04/17 09:21:08;;;;;;;5.10;3.22;;;;;;;;;;5013034;28;20053;-60
2023/04/17 09:24:06;;;;;;;7.03;2.58;;;;;;;;;;5001826;28;20057;-60
2023/04/17 09:26:40;;;;;;;6.55;2.72;;;;;;;;;;5000412;28;20062;-60
2023/04/17 09:29:10;;;;;;;8.02;2.97;;;;;;;;;;5010650;28;20753;-60
2023/04/17 09:31:39;;;;;;;5.45;2.53;;;;;;;;;;5014660;28;20662;-54
2023/04/17 09:34:15;;;;;;;6.38;2.40;;;;;;;;;;5016201;28;20049;-57
2023/04/17 09:36:43;;;;;;;4.90;2.50;;;;;;;;;;5006023;28;20692;-58
2023/04/17 09:39:28;;;;;;;4.68;2.50;;;;;;;;;;5013307;28;20057;-58
2023/04/17 09:42:02;;;;;;;4.80;2.33;;;;;;;;;;5012373;28;20049;-58
2023/04/17 09:45:17;;;;;;;7.50;2.67;;;;;;;;;;5011042;28;20040;-58
2023/04/17 09:47:54;;;;;;;4.88;2.70;;;;;;;;;;5015204;28;20054;-58
2023/04/17 09:50:28;;;;;;;8.35;2.85;;;;;;;;;;5012521;28;20062;-61
2023/04/17 09:52:56;;;;;;;6.93;2.78;;;;;;;;;;5015413;28;20053;-60
2023/04/17 09:55:30;;;;;;;7.25;2.70;;;;;;;;;;5013220;28;20160;-60
2023/04/17 09:57:57;;;;;;;;;;;;;;;;;;5012320;28;20148;-61
2023/04/17 10:00:31;;;;;;;5.38;2.65;;;;;;;;;;5012870;28;20041;-53
2023/04/17 10:02:58;;;;;;;5.13;2.88;;;;;;;;;;5013966;28;20132;-59
2023/04/17 10:05:27;;;;;;;4.30;2.53;;;;;;;;;;5015130;28;20049;-58
2023/04/17 10:08:02;;;;;;;7.55;2.92;;;;;;;;;;5012670;28;20049;-60
2023/04/17 10:10:35;;;;;;;4.40;2.80;;;;;;;;;;5014557;28;20073;-60
2023/04/17 10:13:10;;;;;;;5.68;2.88;;;;;;;;;;5014692;28;20042;-58
2023/04/17 10:15:38;;;;;;;6.88;2.88;;;;;;;;;;5011406;28;20068;-57
2023/04/17 10:18:24;;;;;;;9.32;2.70;;;;;;;;;;5015033;28;20088;-61
2023/04/17 10:21:18;;;;;;;5.30;2.67;;;;;;;;;;5008978;28;20056;-61
2023/04/17 10:23:45;;;;;;;5.07;3.00;;;;;;;;;;5015873;28;20056;-60
2023/04/17 10:26:25;;;;;;;4.53;2.78;;;;;;;;;;5016640;28;20057;-61
2023/04/17 10:28:53;;;;;;;5.25;2.50;;;;;;;;;;5015860;28;20048;-63
2023/04/17 10:31:46;;;;;;;8.00;3.08;;;;;;;;;;5013969;28;20100;-61
2023/04/17 10:34:32;;;;;;;7.38;2.85;;;;;;;;;;5016846;28;20176;-60
2023/04/17 10:37:14;;;;;;;5.13;2.95;;;;;;;;;;5016720;28;21066;-60
2023/04/17 10:40:09;;;;;;;3.95;2.50;;;;;;;;;;5012773;28;20527;-61
2023/04/17 10:43:09;;;;;;;5.00;3.00;;;;;;;;;;5015419;28;20053;-61
2023/04/17 10:45:53;;;;;;;4.88;2.90;;;;;;;;;;5017304;28;20046;-60
2023/04/17 10:48:28;;;;;;;4.80;2.90;;;;;;;;;;5016548;28;20452;-60
2023/04/17 10:50:55;;;;;;;4.93;2.80;;;;;;;;;;5014774;28;20052;-61
2023/04/17 10:53:42;;;;;;;3.80;2.90;;;;;;;;;;5013886;28;20076;-60
2023/04/17 10:56:23;;;;;;;5.60;2.90;;;;;;;;;;5016073;28;20053;-56
2023/04/17 10:58:57;;;;;;;5.43;2.90;;;;;;;;;;5001151;28;20140;-58
2023/04/17 11:01:26;;;;;;;10.20;3.40;;;;;;;;;;5017534;28;20045;-58
2023/04/17 11:03:55;;;;;;;6.18;2.75;;;;;;;;;;5016691;28;20184;-55
2023/04/17 11:06:33;;;;;;;4.47;2.70;;;;;;;;;;5013633;28;20074;-54
2023/04/17 11:09:00;;;;;;;5.82;2.97;;;;;;;;;;5013862;28;20059;-56
2023/04/17 11:11:38;;;;;;;5.13;2.92;;;;;;;;;;5017862;28;20054;-57
2023/04/17 11:14:15;;;;;;;8.23;3.22;;;;;;;;;;5016707;28;20583;-55
2023/04/17 11:16:49;;;;;;;6.90;2.70;;;;;;;;;;5018153;28;20081;-58
2023/04/17 11:19:18;;;;;;;5.38;3.20;;;;;;;;;;5016379;28;20095;-57
2023/04/17 11:21:53;;;;;;;7.30;3.00;;;;;;;;;;5018342;28;20084;-59
2023/04/17 11:24:27;;;;;;;7.65;2.85;;;;;;;;;;5016231;28;20077;-52
2023/04/17 11:27:02;;;;;;;3.58;2.95;;;;;;;;;;5012726;28;20083;-56
2023/04/17 11:29:29;;;;;;;7.32;3.03;;;;;;;;;;5013788;28;20861;-60
2023/04/17 11:31:59;;;;;;;8.30;3.38;;;;;;;;;;5017924;28;20053;-60
2023/04/17 11:34:33;;;;;;;7.47;3.00;;;;;;;;;;5011544;28;20042;-60
2023/04/17 11:37:01;;;;;;;6.25;3.08;;;;;;;;;;5017173;28;20143;-61
2023/04/17 11:39:42;;;;;;;7.13;2.90;;;;;;;;;;5016532;28;20054;-60
2023/04/17 11:42:09;;;;;;;9.38;2.72;;;;;;;;;;5016872;28;20145;-60
2023/04/17 11:44:43;;;;;;;5.95;3.13;;;;;;;;;;5015165;28;20146;-54
2023/04/17 11:47:10;;;;;;;4.13;3.10;;;;;;;;;;5016875;28;20145;-53
2023/04/17 11:49:38;;;;;;;6.38;3.00;;;;;;;;;;5017943;28;20431;-54
2023/04/17 11:52:12;;;;;;;6.70;3.28;;;;;;;;;;5001422;28;20049;-51
2023/04/17 11:54:41;;;;;;;8.45;2.70;;;;;;;;;;5016854;28;20121;-49
2023/04/17 11:57:15;;;;;;;6.78;2.85;;;;;;;;;;5016496;28;20510;-62
2023/04/17 11:59:44;;;;;;;4.85;2.58;;;;;;;;;;5015130;28;20048;-61
2023/04/17 12:02:31;;;;;;;5.32;2.65;;;;;;;;;;5016969;28;20083;-61
2023/04/17 12:05:12;;;;;;;6.72;2.83;;;;;;;;;;5015078;28;20512;-61
2023/04/17 12:07:46;;;;;;;5.32;3.03;;;;;;;;;;5016714;28;20485;-61
2023/04/17 15:03:06;;;;;;;5.60;3.25;;;;;;;;;;5000666;28;20519;-56
2023/04/17 15:05:33;;;;;;;8.27;3.55;;;;;;;;;;5000507;28;20066;-56
2023/04/17 15:08:07;;;;;;;5.55;3.13;;;;;;;;;;5005726;28;20125;-58
2023/04/17 15:10:34;;;;;;;10.75;3.17;;;;;;;;;;5003361;28;20180;-58
2023/04/17 15:13:16;;;;;;;6.15;3.25;;;;;;;;;;5003538;28;20053;-59
2023/04/17 15:15:50;;;;;;;10.77;3.72;;;;;;;;;;5001077;28;20049;-50
2023/04/17 15:18:17;;;;;;;8.98;3.85;;;;;;;;;;5002028;28;20145;-50
2023/04/17 15:20:51;;;;;;;5.45;3.17;;;;;;;;;;4993547;28;20053;-48
2023/04/17 15:23:18;;;;;;;6.95;4.22;;;;;;;;;;5004936;28;20046;-54
2023/04/17 15:25:45;;;;;;;10.88;3.70;;;;;;;;;;5001823;28;20098;-52
2023/04/17 15:28:19;;;;;;;9.63;3.22;;;;;;;;;;5001772;28;20050;-48
2023/04/17 15:30:46;;;;;;;6.40;3.67;;;;;;;;;;4999914;28;20060;-58
2023/04/17 15:33:20;;;;;;;4.90;3.30;;;;;;;;;;5005140;28;20164;-59
2023/04/17 15:35:53;;;;;;;9.23;4.25;;;;;;;;;;4998025;28;20053;-58
2023/04/17 15:38:20;;;;;;;9.55;3.92;;;;;;;;;;4997573;28;20068;-58
2023/04/17 15:40:55;;;;;;;11.13;3.58;;;;;;;;;;5002888;28;20349;-61
2023/04/17 15:43:22;;;;;;;9.25;4.15;;;;;;;;;;5002785;28;20053;-52
2023/04/17 15:45:57;;;;;;;5.57;3.72;;;;;;;;;;4998156;28;20060;-52
2023/04/17 15:48:26;;;;;;;7.65;3.83;;;;;;;;;;4995514;28;20136;-49
2023/04/17 15:51:01;;;;;;;8.23;3.20;;;;;;;;;;5000560;28;20133;-47
2023/04/17 15:53:29;;;;;;;4.93;2.97;;;;;;;;;;4998826;28;20050;-50
2023/04/17 15:55:56;;;;;;;4.93;3.10;;;;;;;;;;5002470;28;20137;-50
2023/04/17 15:58:30;;;;;;;9.27;2.97;;;;;;;;;;4999064;28;20057;-61
2023/04/17 16:01:04;;;;;;;5.63;2.90;;;;;;;;;;5002275;28;20060;-61
2023/04/17 16:03:39;;;;;;;8.13;3.10;;;;;;;;;;5011839;28;20058;-63
2023/04/17 16:06:13;;;;;;;6.57;2.88;;;;;;;;;;5015553;28;20488;-61
2023/04/17 16:08:47;;;;;;;6.82;3.30;;;;;;;;;;5017779;28;20484;-61
2023/04/17 16:11:15;;;;;;;6.35;2.85;;;;;;;;;;5015341;28;20054;-57
2023/04/17 16:13:42;;;;;;;8.65;2.92;;;;;;;;;;5015238;28;20045;-59
2023/04/17 16:16:16;;;;;;;7.30;3.00;;;;;;;;;;5011896;28;20121;-59
2023/04/17 16:18:46;;;;;;;5.10;2.83;;;;;;;;;;5014352;28;20517;-60
2023/04/17 16:21:13;;;;;;;6.38;2.80;;;;;;;;;;5015989;28;20052;-60
2023/04/17 16:23:48;;;;;;;6.47;2.95;;;;;;;;;;5015320;28;20409;-59
2023/04/17 16:26:15;;;;;;;4.05;2.40;;;;;;;;;;5017004;28;20199;-59
2023/04/17 16:28:44;;;;;;;5.53;2.55;;;;;;;;;;5016961;28;20051;-51
2023/04/17 16:31:20;;;;;;;5.78;2.90;;;;;;;;;;5005882;28;20058;-54
2023/04/17 16:33:47;;;;;;;5.85;3.08;;;;;;;;;;5006928;28;20057;-55
2023/04/17 16:36:21;;;;;;;6.80;2.85;;;;;;;;;;5009667;28;20413;-56
2023/04/17 16:38:48;;;;;;;5.85;3.40;;;;;;;;;;5012137;28;20550;-61
2023/04/17 16:41:15;;;;;;;4.85;3.20;;;;;;;;;;5010505;28;20164;-53
2023/04/17 16:43:49;;;;;;;6.55;2.67;;;;;;;;;;5009761;28;20136;-48
2023/04/17 16:46:16;;;;;;;5.72;3.05;;;;;;;;;;5009483;28;20547;-51
2023/04/17 16:49:01;;;;;;;7.57;3.30;;;;;;;;;;5010168;28;20108;-53
2023/04/17 16:51:36;;;;;;;7.57;3.35;;;;;;;;;;5010636;28;20559;-53
2023/04/17 16:54:10;;;;;;;6.60;3.17;;;;;;;;;;5009080;28;20064;-55
2023/04/17 16:56:44;;;;;;;7.55;3.00;;;;;;;;;;5013166;28;20057;-60
2023/04/17 16:59:11;;;;;;;7.20;2.72;;;;;;;;;;5010335;28;20394;-61
2023/04/17 17:01:39;;;;;;;6.18;2.58;;;;;;;;;;5010276;28;20064;-61
2023/04/17 17:04:20;;;;;;;4.00;2.72;;;;;;;;;;5010909;28;20060;-61
2023/04/17 17:06:47;;;;;;;11.23;2.65;;;;;;;;;;5012172;28;20061;-61
2023/04/17 17:09:21;;;;;;;4.90;3.15;;;;;;;;;;5012810;28;20442;-60
2023/04/17 17:11:49;;;;;;;5.95;3.03;;;;;;;;;;5014406;28;20093;-60
2023/04/17 17:14:16;;;;;;;10.15;3.42;;;;;;;;;;5011218;28;20045;-60
2023/04/17 17:16:49;;;;;;;4.80;2.80;;;;;;;;;;5012946;28;20052;-59
2023/04/17 17:19:16;;;;;;;6.82;2.60;;;;;;;;;;5011093;28;20053;-59
2023/04/17 17:21:50;;;;;;;5.25;2.70;;;;;;;;;;5006536;28;20541;-60
2023/04/17 17:24:17;;;;;;;7.03;2.65;;;;;;;;;;5011049;28;20515;-60
2023/04/17 17:26:44;;;;;;;5.28;2.70;;;;;;;;;;5013147;28;20251;-60
2023/04/17 17:29:18;;;;;;;4.22;2.80;;;;;;;;;;5007269;28;20064;-60
2023/04/17 17:31:45;;;;;;;5.53;2.85;;;;;;;;;;5014242;28;20057;-59
2023/04/17 17:34:19;;;;;;;4.47;2.63;;;;;;;;;;5008577;28;20058;-59
2023/04/17 17:36:52;;;;;;;4.22;2.80;;;;;;;;;;5011820;28;20144;-59
2023/04/17 17:39:26;;;;;;;9.80;3.05;;;;;;;;;;5010054;28;20090;-49
2023/04/17 17:41:54;;;;;;;5.28;2.78;;;;;;;;;;5012520;28;20053;-50
2023/04/17 17:44:21;;;;;;;9.40;2.70;;;;;;;;;;5009116;28;20117;-50
2023/04/17 17:46:55;;;;;;;8.65;2.80;;;;;;;;;;5012678;28;20058;-50
2023/04/17 17:49:22;;;;;;;5.68;2.90;;;;;;;;;;5011698;28;20217;-53
2023/04/17 17:51:49;;;;;;;3.28;2.50;;;;;;;;;;5008075;28;20064;-49
2023/04/17 17:54:23;;;;;;;9.82;2.67;;;;;;;;;;5010788;28;20052;-50
2023/04/17 17:56:50;;;;;;;6.22;3.00;;;;;;;;;;5011682;28;20625;-50